createdAt,value
2018-07-23T00:02:03.569Z,17.80
2018-07-23T00:04:31.881Z,17.80
2018-07-23T00:07:00.689Z,17.80
2018-07-23T00:09:29.713Z,17.80
2018-07-23T00:11:58.102Z,17.80
2018-07-23T00:14:26.389Z,17.70
2018-07-23T00:16:54.742Z,17.70
2018-07-23T00:19:23.017Z,17.70
2018-07-23T00:21:51.260Z,17.70
2018-07-23T00:24:19.753Z,17.60
2018-07-23T00:26:48.418Z,17.60
2018-07-23T00:29:17.089Z,17.50
2018-07-23T00:31:45.361Z,17.50
2018-07-23T00:34:14.507Z,17.50
2018-07-23T00:36:43.221Z,17.50
2018-07-23T00:39:11.577Z,17.50
2018-07-23T00:41:39.830Z,17.40
2018-07-23T00:44:08.144Z,17.40
2018-07-23T00:46:36.410Z,17.30
2018-07-23T00:49:04.802Z,17.30
2018-07-23T00:51:33.787Z,17.30
2018-07-23T00:54:02.552Z,17.30
2018-07-23T00:56:30.927Z,17.30
2018-07-23T00:58:59.189Z,17.30
2018-07-23T01:01:27.521Z,17.20
2018-07-23T01:03:56.107Z,17.20
2018-07-23T01:06:24.451Z,17.10
2018-07-23T01:08:52.711Z,17.10
2018-07-23T01:11:20.978Z,17.10
2018-07-23T01:13:49.241Z,17.00
2018-07-23T01:16:17.473Z,17.00
2018-07-23T01:18:45.758Z,16.90
2018-07-23T01:21:15.035Z,16.90
2018-07-23T01:23:43.359Z,16.90
2018-07-23T01:26:11.595Z,16.90
2018-07-23T01:28:39.857Z,16.80
2018-07-23T01:31:08.809Z,16.80
2018-07-23T01:33:37.210Z,16.80
2018-07-23T01:36:05.556Z,16.80
2018-07-23T01:38:33.822Z,16.80
2018-07-23T01:41:02.093Z,16.80
2018-07-23T01:43:30.361Z,16.80
2018-07-23T01:45:59.585Z,16.70
2018-07-23T01:48:29.137Z,16.70
2018-07-23T01:50:57.475Z,16.70
2018-07-23T01:53:25.872Z,16.70
2018-07-23T01:55:54.274Z,16.60
2018-07-23T01:58:22.586Z,16.60
2018-07-23T02:00:51.196Z,16.60
2018-07-23T02:03:20.405Z,16.60
2018-07-23T02:05:49.234Z,16.60
2018-07-23T02:08:18.362Z,16.60
2018-07-23T02:10:47.381Z,16.60
2018-07-23T02:13:15.702Z,16.60
2018-07-23T02:15:43.970Z,16.60
2018-07-23T02:18:12.340Z,16.60
2018-07-23T02:20:40.570Z,16.60
2018-07-23T02:23:09.014Z,16.60
2018-07-23T02:25:37.281Z,16.50
2018-07-23T02:28:05.682Z,16.50
2018-07-23T02:30:34.666Z,16.50
2018-07-23T02:33:03.970Z,16.50
2018-07-23T02:35:32.390Z,16.40
2018-07-23T02:38:00.780Z,16.40
2018-07-23T02:40:29.043Z,16.40
2018-07-23T02:42:57.375Z,16.40
2018-07-23T02:45:25.698Z,16.40
2018-07-23T02:47:54.655Z,16.30
2018-07-23T02:50:22.951Z,16.40
2018-07-23T02:52:51.676Z,16.40
2018-07-23T02:55:20.014Z,16.40
2018-07-23T02:57:48.649Z,16.30
2018-07-23T03:00:16.987Z,16.30
2018-07-23T03:02:45.272Z,16.30
2018-07-23T03:05:13.541Z,16.30
2018-07-23T03:07:42.385Z,16.20
2018-07-23T03:10:11.825Z,16.20
2018-07-23T03:12:40.830Z,16.20
2018-07-23T03:15:09.566Z,16.10
2018-07-23T03:17:37.873Z,16.10
2018-07-23T03:20:06.242Z,16.00
2018-07-23T03:22:34.497Z,16.00
2018-07-23T03:25:02.797Z,16.00
2018-07-23T03:27:31.055Z,16.00
2018-07-23T03:30:00.156Z,16.00
2018-07-23T03:32:29.278Z,16.00
2018-07-23T03:34:58.222Z,15.90
2018-07-23T03:37:27.255Z,15.90
2018-07-23T03:39:55.543Z,16.00
2018-07-23T03:42:23.864Z,16.00
2018-07-23T03:44:52.549Z,16.00
2018-07-23T03:47:21.373Z,16.00
2018-07-23T03:49:50.154Z,16.00
2018-07-23T03:52:18.443Z,16.00
2018-07-23T03:54:46.733Z,15.90
2018-07-23T03:57:15.006Z,15.90
2018-07-23T03:59:43.370Z,15.90
2018-07-23T04:02:11.842Z,15.90
2018-07-23T04:04:40.110Z,15.90
2018-07-23T04:07:08.861Z,15.90
2018-07-23T04:09:37.136Z,15.90
2018-07-23T04:12:06.242Z,15.90
2018-07-23T04:14:34.562Z,15.90
2018-07-23T04:17:02.825Z,15.90
2018-07-23T04:21:59.216Z,16.00
2018-07-23T04:24:27.636Z,16.00
2018-07-23T04:26:55.928Z,16.00
2018-07-23T04:29:24.237Z,16.00
2018-07-23T04:31:52.514Z,16.10
2018-07-23T04:34:20.806Z,16.10
2018-07-23T04:36:49.640Z,16.20
2018-07-23T04:39:18.267Z,16.30
2018-07-23T04:41:46.530Z,16.30
2018-07-23T04:46:43.725Z,16.60
2018-07-23T04:49:12.040Z,16.60
2018-07-23T04:51:40.346Z,16.70
2018-07-23T04:54:08.630Z,16.80
2018-07-23T04:56:37.504Z,16.90
2018-07-23T04:59:05.794Z,17.00
2018-07-23T05:04:02.157Z,17.10
2018-07-23T05:06:30.437Z,17.30
2018-07-23T05:08:58.735Z,17.40
2018-07-23T05:11:27.547Z,17.60
2018-07-23T05:16:24.489Z,17.90
2018-07-23T05:18:52.730Z,18.10
2018-07-23T05:21:21.018Z,18.20
2018-07-23T05:23:49.814Z,18.10
2018-07-23T05:26:18.326Z,18.00
2018-07-23T05:28:47.035Z,18.00
2018-07-23T05:31:15.496Z,17.90
2018-07-23T05:33:43.790Z,17.80
2018-07-23T05:36:12.081Z,17.90
2018-07-23T05:38:40.475Z,18.00
2018-07-23T05:41:09.224Z,18.10
2018-07-23T05:43:37.830Z,18.20
2018-07-23T05:46:06.274Z,18.40
2018-07-23T05:48:34.567Z,18.60
2018-07-23T05:51:02.926Z,18.80
2018-07-23T05:53:31.277Z,18.90
2018-07-23T05:55:59.549Z,19.10
2018-07-23T05:58:27.810Z,19.30
2018-07-23T06:00:56.153Z,19.40
2018-07-23T06:03:24.486Z,19.60
2018-07-23T06:05:52.774Z,19.70
2018-07-23T06:08:21.069Z,19.80
2018-07-23T06:10:49.413Z,19.80
2018-07-23T06:13:18.284Z,19.90
2018-07-23T06:15:47.021Z,19.90
2018-07-23T06:20:43.969Z,20.30
2018-07-23T06:23:12.805Z,20.50
2018-07-23T06:25:41.603Z,20.60
2018-07-23T06:28:10.403Z,20.70
2018-07-23T06:30:39.233Z,20.90
2018-07-23T06:33:07.734Z,21.10
2018-07-23T06:35:36.036Z,21.20
2018-07-23T06:38:04.450Z,21.40
2018-07-23T06:40:32.743Z,21.60
2018-07-23T06:43:01.002Z,21.70
2018-07-23T06:45:29.505Z,22.00
2018-07-23T06:47:59.202Z,22.20
2018-07-23T06:50:27.648Z,22.40
2018-07-23T06:52:55.917Z,22.70
2018-07-23T06:55:24.361Z,22.80
2018-07-23T06:57:53.029Z,22.80
2018-07-23T07:00:21.884Z,22.90
2018-07-23T07:02:51.802Z,23.00
2018-07-23T07:07:49.288Z,23.40
2018-07-23T07:10:17.697Z,23.60
2018-07-23T07:12:45.949Z,23.70
2018-07-23T07:15:14.640Z,24.00
2018-07-23T07:17:44.537Z,24.10
2018-07-23T07:20:12.907Z,24.30
2018-07-23T07:22:41.238Z,24.40
2018-07-23T07:25:10.455Z,24.70
2018-07-23T07:27:39.781Z,24.90
2018-07-23T07:30:08.786Z,25.00
2018-07-23T07:32:37.098Z,25.30
2018-07-23T07:35:05.472Z,25.30
2018-07-23T07:37:33.746Z,25.60
2018-07-23T07:40:02.030Z,25.60
2018-07-23T07:42:30.331Z,25.90
2018-07-23T07:44:58.729Z,26.20
2018-07-23T07:47:27.182Z,26.60
2018-07-23T07:49:55.484Z,27.00
2018-07-23T07:52:23.770Z,26.80
2018-07-23T07:54:52.341Z,26.70
2018-07-23T07:57:20.668Z,26.90
2018-07-23T07:59:48.943Z,27.00
2018-07-23T08:02:17.242Z,27.40
2018-07-23T08:04:45.708Z,27.80
2018-07-23T08:07:14.523Z,28.30
2018-07-23T08:09:43.075Z,28.90
2018-07-23T08:12:12.192Z,29.40
2018-07-23T08:14:40.482Z,29.80
2018-07-23T08:17:08.807Z,30.20
2018-07-23T08:19:38.151Z,30.20
2018-07-23T08:22:08.938Z,30.40
2018-07-23T08:24:38.142Z,31.00
2018-07-23T08:27:06.917Z,32.10
2018-07-23T08:29:35.186Z,33.40
2018-07-23T08:32:04.466Z,34.00
2018-07-23T08:34:32.820Z,35.10
2018-07-23T08:37:01.162Z,35.80
2018-07-23T08:39:29.763Z,36.10
2018-07-23T08:41:58.041Z,36.50
2018-07-23T08:44:26.307Z,35.80
2018-07-23T08:46:54.610Z,34.90
2018-07-23T08:49:22.880Z,35.50
2018-07-23T08:51:52.677Z,36.50
2018-07-23T08:54:21.005Z,37.00
2018-07-23T08:56:49.298Z,37.50
2018-07-23T08:59:17.723Z,38.00
2018-07-23T09:01:46.013Z,37.80
2018-07-23T09:04:15.328Z,38.20
2018-07-23T09:06:44.400Z,38.90
2018-07-23T09:11:40.971Z,38.90
2018-07-23T09:14:09.314Z,38.70
2018-07-23T09:16:38.226Z,38.60
2018-07-23T09:19:06.678Z,37.90
2018-07-23T09:24:03.515Z,37.80
2018-07-23T09:26:31.799Z,37.80
2018-07-23T09:29:01.025Z,38.60
2018-07-23T09:31:29.493Z,39.00
2018-07-23T09:33:57.770Z,39.50
2018-07-23T09:36:26.059Z,39.80
2018-07-23T09:38:54.359Z,40.00
2018-07-23T09:41:22.661Z,40.30
2018-07-23T09:43:50.899Z,40.40
2018-07-23T09:46:19.259Z,40.30
2018-07-23T09:48:47.734Z,40.60
2018-07-23T09:51:16.695Z,39.90
2018-07-23T09:53:46.748Z,39.80
2018-07-23T09:56:15.158Z,39.80
2018-07-23T09:58:43.813Z,40.00
2018-07-23T10:01:14.241Z,40.30
2018-07-23T10:03:43.299Z,40.60
2018-07-23T10:06:11.577Z,40.70
2018-07-23T10:08:39.906Z,40.60
2018-07-23T10:11:08.242Z,40.30
2018-07-23T10:13:36.556Z,39.70
2018-07-23T10:16:04.822Z,39.50
2018-07-23T10:18:33.118Z,39.30
2018-07-23T10:21:02.505Z,39.10
2018-07-23T10:23:30.862Z,39.40
2018-07-23T10:25:59.227Z,39.10
2018-07-23T10:28:27.490Z,39.40
2018-07-23T10:30:57.012Z,38.70
2018-07-23T10:33:25.739Z,37.70
2018-07-23T10:35:54.066Z,38.30
2018-07-23T10:38:23.234Z,36.60
2018-07-23T10:40:51.535Z,34.30
2018-07-23T10:43:19.788Z,32.70
2018-07-23T10:45:48.029Z,31.90
2018-07-23T10:48:16.359Z,31.40
2018-07-23T10:50:44.606Z,31.20
2018-07-23T10:53:14.149Z,31.50
2018-07-23T10:55:42.441Z,32.80
2018-07-23T10:58:10.714Z,34.10
2018-07-23T11:00:38.982Z,35.00
2018-07-23T11:03:07.274Z,35.10
2018-07-23T11:05:35.498Z,34.80
2018-07-23T11:08:04.612Z,34.30
2018-07-23T11:10:32.894Z,33.70
2018-07-23T11:13:01.993Z,33.00
2018-07-23T11:15:31.193Z,32.30
2018-07-23T11:17:59.507Z,31.70
2018-07-23T11:20:27.793Z,31.30
2018-07-23T11:22:56.071Z,30.90
2018-07-23T11:25:39.087Z,30.70
2018-07-23T11:27:53.377Z,30.40
2018-07-23T11:30:22.167Z,30.30
2018-07-23T11:32:50.438Z,30.20
2018-07-23T11:35:18.723Z,30.10
2018-07-23T11:37:47.311Z,29.90
2018-07-23T11:40:15.618Z,29.90
2018-07-23T11:42:44.329Z,30.00
2018-07-23T11:45:12.929Z,30.00
2018-07-23T11:47:41.238Z,30.10
2018-07-23T11:50:09.609Z,30.00
2018-07-23T11:52:37.893Z,30.00
2018-07-23T11:55:06.738Z,30.00
2018-07-23T11:57:34.996Z,30.20
2018-07-23T12:00:03.716Z,30.40
2018-07-23T12:02:32.069Z,30.60
2018-07-23T12:05:00.350Z,30.60
2018-07-23T12:07:28.653Z,30.40
2018-07-23T12:09:56.905Z,30.30
2018-07-23T12:15:00.156Z,30.30
2018-07-23T12:17:28.535Z,30.20
2018-07-23T12:19:56.721Z,30.10
2018-07-23T12:22:25.006Z,29.90
2018-07-23T12:24:53.273Z,29.90
2018-07-23T12:27:21.551Z,29.90
2018-07-23T12:29:49.830Z,29.90
2018-07-23T12:32:19.680Z,29.80
2018-07-23T12:34:48.358Z,29.80
2018-07-23T12:37:16.690Z,29.80
2018-07-23T12:39:45.476Z,29.80
2018-07-23T12:42:13.758Z,29.70
2018-07-23T12:44:42.046Z,29.60
2018-07-23T12:47:10.355Z,29.50
2018-07-23T12:49:38.622Z,29.30
2018-07-23T12:52:06.869Z,29.40
2018-07-23T12:54:36.002Z,29.40
2018-07-23T12:57:04.329Z,29.30
2018-07-23T12:59:33.174Z,29.40
2018-07-23T13:02:01.986Z,29.50
2018-07-23T13:04:30.969Z,29.60
2018-07-23T13:06:59.224Z,29.70
2018-07-23T13:09:27.506Z,29.70
2018-07-23T13:11:55.766Z,29.70
2018-07-23T13:14:24.702Z,29.60
2018-07-23T13:16:53.186Z,29.60
2018-07-23T13:21:49.565Z,29.30
2018-07-23T13:24:17.850Z,29.30
2018-07-23T13:26:46.101Z,29.30
2018-07-23T13:31:42.570Z,29.40
2018-07-23T13:34:10.881Z,29.40
2018-07-23T13:36:39.148Z,29.30
2018-07-23T13:39:09.656Z,29.10
2018-07-23T13:41:37.923Z,29.10
2018-07-23T13:44:06.222Z,29.10
2018-07-23T13:46:34.481Z,29.10
2018-07-23T13:49:02.818Z,29.10
2018-07-23T13:51:31.118Z,29.30
2018-07-23T13:53:59.454Z,29.30
2018-07-23T13:56:27.806Z,29.30
2018-07-23T13:58:56.798Z,29.40
2018-07-23T14:01:25.154Z,29.40
2018-07-23T14:03:53.461Z,29.40
2018-07-23T14:06:22.458Z,29.40
2018-07-23T14:08:50.990Z,29.40
2018-07-23T14:11:19.525Z,29.30
2018-07-23T14:13:47.847Z,29.30
2018-07-23T14:16:16.123Z,29.30
2018-07-23T14:18:44.427Z,29.30
2018-07-23T14:23:40.729Z,29.40
2018-07-23T14:26:09.981Z,29.40
2018-07-23T14:28:39.163Z,29.40
2018-07-23T14:31:07.545Z,29.30
2018-07-23T14:33:35.810Z,29.30
2018-07-23T14:36:05.866Z,29.30
2018-07-23T14:38:40.512Z,29.30
2018-07-23T14:41:10.461Z,29.30
2018-07-23T14:43:39.126Z,29.10
2018-07-23T14:46:07.418Z,29.10
2018-07-23T14:48:36.398Z,29.00
2018-07-23T14:51:04.755Z,28.90
2018-07-23T14:53:33.060Z,29.00
2018-07-23T14:56:01.976Z,29.10
2018-07-23T14:58:31.468Z,29.30
2018-07-23T15:01:01.174Z,29.40
2018-07-23T15:03:30.430Z,29.50
2018-07-23T15:05:58.726Z,29.50
2018-07-23T15:08:28.053Z,29.50
2018-07-23T15:10:56.577Z,29.40
2018-07-23T15:13:25.965Z,29.50
2018-07-23T15:18:23.987Z,29.60
2018-07-23T15:20:52.286Z,29.60
2018-07-23T15:23:21.617Z,29.70
2018-07-23T15:25:51.307Z,29.70
2018-07-23T15:28:20.202Z,29.60
2018-07-23T15:30:48.457Z,29.60
2018-07-23T15:33:16.722Z,29.50
2018-07-23T15:35:45.005Z,29.40
2018-07-23T15:38:13.256Z,29.30
2018-07-23T15:40:41.546Z,29.30
2018-07-23T15:43:09.813Z,29.20
2018-07-23T15:45:38.196Z,29.10
2018-07-23T15:48:06.605Z,29.00
2018-07-23T15:53:02.871Z,28.90
2018-07-23T15:55:31.125Z,28.90
2018-07-23T15:57:59.405Z,29.00
2018-07-23T16:00:28.217Z,28.90
2018-07-23T16:02:56.497Z,28.90
2018-07-23T16:05:24.913Z,28.90
2018-07-23T16:07:53.757Z,29.00
2018-07-23T16:10:22.648Z,29.00
2018-07-23T16:12:51.313Z,29.00
2018-07-23T16:15:19.634Z,28.90
2018-07-23T16:17:48.017Z,28.80
2018-07-23T16:20:16.317Z,28.70
2018-07-23T16:22:44.578Z,28.50
2018-07-23T16:25:12.849Z,28.40
2018-07-23T16:27:41.118Z,28.30
2018-07-23T16:30:11.014Z,28.20
2018-07-23T16:32:39.311Z,28.00
2018-07-23T16:35:09.685Z,28.00
2018-07-23T16:37:39.517Z,27.90
2018-07-23T16:40:09.643Z,27.80
2018-07-23T16:42:37.946Z,27.70
2018-07-23T16:45:06.252Z,27.70
2018-07-23T16:47:34.494Z,27.70
2018-07-23T16:50:02.769Z,27.60
2018-07-23T16:52:31.631Z,27.60
2018-07-23T16:54:59.893Z,27.60
2018-07-23T16:57:28.159Z,27.60
2018-07-23T16:59:56.488Z,27.50
2018-07-23T17:02:24.879Z,27.50
2018-07-23T17:04:53.141Z,27.50
2018-07-23T17:07:21.369Z,27.40
2018-07-23T17:09:49.718Z,27.30
2018-07-23T17:12:17.962Z,27.30
2018-07-23T17:14:46.472Z,27.30
2018-07-23T17:17:15.713Z,27.20
2018-07-23T17:19:45.283Z,27.20
2018-07-23T17:22:13.543Z,27.20
2018-07-23T17:24:43.153Z,27.20
2018-07-23T17:29:40.033Z,27.20
2018-07-23T17:32:08.333Z,27.30
2018-07-23T17:34:37.582Z,27.40
2018-07-23T17:37:05.857Z,27.50
2018-07-23T17:39:34.129Z,27.60
2018-07-23T17:42:02.422Z,27.60
2018-07-23T17:44:30.690Z,27.70
2018-07-23T17:49:27.695Z,27.70
2018-07-23T17:51:56.021Z,27.70
2018-07-23T17:54:25.418Z,27.70
2018-07-23T17:56:54.941Z,27.60
2018-07-23T17:59:23.213Z,27.60
2018-07-23T18:01:51.978Z,27.50
2018-07-23T18:04:20.290Z,27.40
2018-07-23T18:09:16.704Z,27.40
2018-07-23T18:11:45.732Z,27.30
2018-07-23T18:14:14.047Z,27.30
2018-07-23T18:16:42.401Z,27.20
2018-07-23T18:19:10.706Z,27.20
2018-07-23T18:21:39.135Z,27.10
2018-07-23T18:24:07.542Z,27.00
2018-07-23T18:26:36.165Z,27.00
2018-07-23T18:29:04.625Z,26.90
2018-07-23T18:31:32.964Z,26.90
2018-07-23T18:34:01.729Z,26.70
2018-07-23T18:36:29.999Z,26.70
2018-07-23T18:38:58.246Z,26.60
2018-07-23T18:41:26.541Z,26.50
2018-07-23T18:43:54.793Z,26.40
2018-07-23T18:46:23.325Z,26.40
2018-07-23T18:49:32.734Z,26.30
2018-07-23T18:52:02.166Z,26.20
2018-07-23T18:54:31.581Z,26.10
2018-07-23T18:57:02.308Z,26.00
2018-07-23T18:59:31.508Z,25.90
2018-07-23T19:02:00.486Z,25.90
2018-07-23T19:04:28.821Z,25.80
2018-07-23T19:06:57.080Z,25.70
2018-07-23T19:09:26.130Z,25.60
2018-07-23T19:11:55.737Z,25.50
2018-07-23T19:14:24.079Z,25.40
2018-07-23T19:19:21.587Z,25.30
2018-07-23T19:21:49.858Z,25.20
2018-07-23T19:24:18.134Z,25.10
2018-07-23T19:26:46.434Z,25.00
2018-07-23T19:29:14.682Z,25.00
2018-07-23T19:31:42.962Z,24.90
2018-07-23T19:34:11.617Z,24.80
2018-07-23T19:36:40.918Z,24.80
2018-07-23T19:39:12.001Z,24.70
2018-07-23T19:41:40.886Z,24.70
2018-07-23T19:44:09.476Z,24.70
2018-07-23T19:46:37.746Z,24.60
2018-07-23T19:49:06.186Z,24.50
2018-07-23T19:51:34.640Z,24.40
2018-07-23T19:54:02.994Z,24.40
2018-07-23T19:56:31.321Z,24.30
2018-07-23T19:58:59.605Z,24.10
2018-07-23T20:01:27.893Z,24.10
2018-07-23T20:03:56.137Z,24.00
2018-07-23T20:06:25.958Z,23.70
2018-07-23T20:08:55.026Z,23.30
2018-07-23T20:11:24.978Z,22.90
2018-07-23T20:13:53.390Z,22.50
2018-07-23T20:16:22.058Z,22.20
2018-07-23T20:18:50.336Z,22.10
2018-07-23T20:21:18.667Z,22.00
2018-07-23T20:23:46.910Z,22.00
2018-07-23T20:26:15.441Z,22.10
2018-07-23T20:28:44.305Z,22.10
2018-07-23T20:31:13.033Z,22.20
2018-07-23T20:33:41.278Z,22.20
2018-07-23T20:36:09.555Z,22.20
2018-07-23T20:38:37.841Z,22.20
2018-07-23T20:41:06.547Z,22.20
2018-07-23T20:43:34.849Z,22.20
2018-07-23T20:46:03.383Z,22.20
2018-07-23T20:48:32.229Z,22.20
2018-07-23T20:51:00.778Z,22.20
2018-07-23T20:53:29.950Z,22.20
2018-07-23T20:55:58.193Z,22.20
2018-07-23T20:58:26.442Z,22.20
2018-07-23T21:00:54.741Z,22.10
2018-07-23T21:03:22.991Z,22.10
2018-07-23T21:05:51.310Z,22.10
2018-07-23T21:08:20.810Z,22.10
2018-07-23T21:10:49.109Z,22.00
2018-07-23T21:13:18.502Z,22.00
2018-07-23T21:15:46.796Z,22.00
2018-07-23T21:18:15.070Z,21.90
2018-07-23T21:23:11.352Z,22.00
2018-07-23T21:25:39.603Z,21.90
2018-07-23T21:28:07.872Z,21.90
2018-07-23T21:30:36.565Z,21.90
2018-07-23T21:33:04.908Z,21.90
2018-07-23T21:35:33.179Z,21.90
2018-07-23T21:38:02.454Z,21.90
2018-07-23T21:40:30.722Z,21.90
2018-07-23T21:42:58.998Z,21.90
2018-07-23T21:45:27.233Z,21.90
2018-07-23T21:47:55.486Z,21.90
2018-07-23T21:50:23.754Z,21.90
2018-07-23T21:52:52.025Z,21.90
2018-07-23T21:55:20.591Z,21.80
2018-07-23T21:57:49.210Z,21.80
2018-07-23T22:00:18.238Z,21.80
2018-07-23T22:02:47.524Z,21.80
2018-07-23T22:05:15.772Z,21.90
2018-07-23T22:07:44.913Z,21.90
2018-07-23T22:12:41.214Z,21.80
2018-07-23T22:15:10.682Z,21.70
2018-07-23T22:17:39.960Z,21.70
2018-07-23T22:20:08.905Z,21.70
2018-07-23T22:22:37.178Z,21.60
2018-07-23T22:25:05.561Z,21.60
2018-07-23T22:27:33.854Z,21.50
2018-07-23T22:30:02.143Z,21.50
2018-07-23T22:32:30.444Z,21.50
2018-07-23T22:37:26.741Z,21.40
2018-07-23T22:39:55.417Z,21.40
2018-07-23T22:42:23.705Z,21.40
2018-07-23T22:44:52.007Z,21.40
2018-07-23T22:47:20.297Z,21.40
2018-07-23T22:49:48.734Z,21.40
2018-07-23T22:52:17.008Z,21.40
2018-07-23T22:54:45.265Z,21.30
2018-07-23T22:57:14.375Z,21.30
2018-07-23T22:59:43.473Z,21.20
2018-07-23T23:02:12.331Z,21.20
2018-07-23T23:04:40.585Z,21.20
2018-07-23T23:07:08.841Z,21.20
2018-07-23T23:09:37.132Z,21.20
2018-07-23T23:12:05.543Z,21.20
2018-07-23T23:14:34.962Z,21.20
2018-07-23T23:17:03.301Z,21.20
2018-07-23T23:19:32.525Z,21.10
2018-07-23T23:22:00.834Z,21.20
2018-07-23T23:24:29.197Z,21.10
2018-07-23T23:26:57.457Z,21.10
2018-07-23T23:31:53.739Z,20.90
2018-07-23T23:34:22.026Z,20.80
2018-07-23T23:36:50.335Z,20.80
2018-07-23T23:39:18.822Z,20.70
2018-07-23T23:41:47.186Z,20.60
2018-07-23T23:44:15.472Z,20.60
2018-07-23T23:46:44.121Z,20.50
2018-07-23T23:49:12.455Z,20.40
2018-07-23T23:51:40.732Z,20.30
2018-07-23T23:54:09.073Z,20.20
2018-07-23T23:56:37.337Z,20.20
2018-07-23T23:59:05.650Z,20.10
